createdAt,value
2022-09-15T00:01:43.387Z,6.72
2022-09-15T00:04:11.301Z,6.85
2022-09-15T00:06:39.073Z,6.68
2022-09-15T00:09:07.355Z,7.40
2022-09-15T00:11:37.683Z,7.30
2022-09-15T00:14:08.624Z,7.70
2022-09-15T00:16:37.121Z,7.10
2022-09-15T00:19:04.969Z,6.93
2022-09-15T00:21:35.173Z,7.20
2022-09-15T00:24:03.127Z,6.82
2022-09-15T00:26:31.947Z,7.50
2022-09-15T00:29:00.783Z,7.13
2022-09-15T00:31:30.836Z,8.18
2022-09-15T00:34:03.343Z,7.22
2022-09-15T00:36:31.646Z,7.60
2022-09-15T00:38:59.624Z,7.95
2022-09-15T00:41:27.941Z,7.22
2022-09-15T00:44:15.899Z,7.32
2022-09-15T00:46:54.829Z,7.80
2022-09-15T00:49:39.077Z,8.65
2022-09-15T00:52:31.855Z,8.18
2022-09-15T00:55:24.152Z,8.68
2022-09-15T00:57:59.211Z,9.63
2022-09-15T01:00:28.963Z,9.45
2022-09-15T01:02:57.539Z,9.13
2022-09-15T01:05:44.899Z,9.60
2022-09-15T01:08:26.913Z,9.57
2022-09-15T01:10:55.336Z,9.02
2022-09-15T01:13:23.240Z,8.43
2022-09-15T01:16:26.660Z,8.35
2022-09-15T01:19:32.357Z,9.27
2022-09-15T01:22:24.684Z,9.57
2022-09-15T01:25:03.289Z,9.38
2022-09-15T01:27:42.600Z,10.55
2022-09-15T01:30:10.834Z,10.32
2022-09-15T01:33:06.759Z,10.48
2022-09-15T01:35:37.452Z,10.80
2022-09-15T01:38:39.856Z,11.05
2022-09-15T01:41:40.594Z,10.93
2022-09-15T01:44:28.015Z,13.05
2022-09-15T01:47:00.514Z,12.07
2022-09-15T01:49:35.529Z,12.60
2022-09-15T01:52:03.793Z,12.52
2022-09-15T01:54:41.684Z,14.60
2022-09-15T01:57:09.743Z,13.77
2022-09-15T01:59:38.045Z,12.95
2022-09-15T02:02:13.289Z,12.88
2022-09-15T02:04:52.941Z,12.23
2022-09-15T02:07:47.558Z,11.75
2022-09-15T02:10:32.819Z,10.95
2022-09-15T02:16:21.220Z,11.40
2022-09-15T02:18:56.814Z,10.20
2022-09-15T02:21:42.275Z,8.95
2022-09-15T02:24:18.687Z,8.70
2022-09-15T02:26:49.536Z,7.72
2022-09-15T02:29:21.470Z,8.32
2022-09-15T02:31:52.570Z,6.25
2022-09-15T02:34:26.032Z,6.22
2022-09-15T02:36:55.170Z,4.87
2022-09-15T02:39:29.171Z,5.07
2022-09-15T02:41:56.970Z,4.90
2022-09-15T02:44:24.786Z,4.70
2022-09-15T02:46:52.463Z,4.30
2022-09-15T02:49:20.292Z,4.25
2022-09-15T02:51:48.349Z,4.47
2022-09-15T02:54:16.188Z,4.93
2022-09-15T02:56:44.682Z,4.85
2022-09-15T02:59:12.538Z,4.13
2022-09-15T03:01:40.813Z,3.90
2022-09-15T03:04:08.781Z,3.20
2022-09-15T03:06:36.658Z,3.60
2022-09-15T03:09:07.549Z,3.58
2022-09-15T03:11:36.329Z,3.22
2022-09-15T03:14:06.597Z,3.70
2022-09-15T03:16:35.590Z,3.78
2022-09-15T03:19:03.935Z,3.80
2022-09-15T03:21:31.961Z,4.93
2022-09-15T03:23:59.684Z,4.50
2022-09-15T03:26:27.490Z,4.90
2022-09-15T03:28:55.541Z,5.57
2022-09-15T03:31:23.290Z,5.22
2022-09-15T03:33:54.714Z,5.60
2022-09-15T03:36:22.729Z,5.85
2022-09-15T03:38:50.942Z,6.53
2022-09-15T03:41:18.978Z,6.13
2022-09-15T03:43:47.062Z,7.63
2022-09-15T03:46:15.211Z,7.30
2022-09-15T03:48:43.217Z,8.45
2022-09-15T03:51:11.863Z,8.05
2022-09-15T03:53:41.743Z,8.30
2022-09-15T03:56:22.102Z,6.82
2022-09-15T03:58:51.271Z,7.68
2022-09-15T04:01:20.230Z,7.18
2022-09-15T04:03:51.073Z,6.97
2022-09-15T04:06:21.961Z,7.13
2022-09-15T04:08:51.184Z,6.88
2022-09-15T04:11:21.320Z,7.32
2022-09-15T04:13:50.906Z,7.53
2022-09-15T04:16:23.211Z,7.75
2022-09-15T04:18:52.778Z,7.75
2022-09-15T04:21:26.094Z,7.13
2022-09-15T04:23:54.724Z,6.95
2022-09-15T04:26:33.070Z,7.13
2022-09-15T04:29:04.504Z,7.43
2022-09-15T04:31:33.930Z,7.70
2022-09-15T04:34:01.748Z,8.00
2022-09-15T04:36:29.780Z,8.27
2022-09-15T04:38:58.315Z,7.60
2022-09-15T04:41:28.157Z,8.05
2022-09-15T04:43:56.705Z,7.93
2022-09-15T04:46:24.530Z,8.90
2022-09-15T04:48:52.455Z,9.55
2022-09-15T04:51:22.191Z,9.07
2022-09-15T04:53:50.598Z,8.88
2022-09-15T04:56:23.360Z,8.93
2022-09-15T04:59:01.092Z,8.88
2022-09-15T05:01:34.108Z,8.25
2022-09-15T05:04:04.048Z,8.38
2022-09-15T05:06:33.092Z,8.48
2022-09-15T05:09:02.918Z,7.82
2022-09-15T05:11:32.940Z,7.50
2022-09-15T05:14:00.995Z,8.02
2022-09-15T05:16:30.116Z,7.60
2022-09-15T05:19:00.124Z,8.48
2022-09-15T05:21:28.059Z,8.00
2022-09-15T05:23:55.832Z,8.18
2022-09-15T05:26:26.746Z,8.57
2022-09-15T05:28:56.007Z,8.15
2022-09-15T05:31:27.303Z,8.15
2022-09-15T05:33:55.418Z,7.70
2022-09-15T05:36:27.437Z,8.27
2022-09-15T05:38:58.970Z,7.40
2022-09-15T05:41:29.036Z,6.90
2022-09-15T05:43:58.163Z,6.97
2022-09-15T05:46:26.925Z,7.57
2022-09-15T05:48:56.719Z,7.07
2022-09-15T05:51:24.987Z,7.68
2022-09-15T05:53:53.161Z,6.82
2022-09-15T05:56:21.264Z,6.47
2022-09-15T05:58:49.931Z,6.20
2022-09-15T06:01:23.171Z,6.20
2022-09-15T06:03:53.089Z,6.95
2022-09-15T06:06:24.624Z,7.70
2022-09-15T06:08:58.145Z,7.30
2022-09-15T06:11:29.285Z,6.93
2022-09-15T06:14:04.071Z,6.97
2022-09-15T06:16:34.892Z,6.05
2022-09-15T06:19:03.634Z,6.95
2022-09-15T06:21:33.153Z,6.75
2022-09-15T06:24:03.605Z,5.88
2022-09-15T06:26:31.589Z,5.68
2022-09-15T06:29:01.247Z,5.63
2022-09-15T06:31:31.718Z,5.22
2022-09-15T06:34:00.631Z,4.90
2022-09-15T06:36:29.832Z,4.47
2022-09-15T06:38:58.538Z,4.53
2022-09-15T06:41:38.144Z,5.07
2022-09-15T06:44:21.671Z,4.88
2022-09-15T06:46:49.733Z,4.88
2022-09-15T06:49:17.823Z,4.70
2022-09-15T06:51:45.748Z,5.00
2022-09-15T06:54:15.996Z,4.60
2022-09-15T06:56:44.451Z,4.97
2022-09-15T06:59:13.096Z,4.30
2022-09-15T07:01:41.685Z,5.10
2022-09-15T07:04:10.027Z,4.95
2022-09-15T07:06:39.227Z,4.97
2022-09-15T07:09:07.249Z,4.63
2022-09-15T07:11:34.973Z,4.45
2022-09-15T07:14:02.582Z,4.85
2022-09-15T07:16:30.456Z,4.38
2022-09-15T07:19:01.326Z,4.38
2022-09-15T07:21:29.425Z,4.00
2022-09-15T07:23:58.012Z,3.90
2022-09-15T07:26:30.483Z,4.13
2022-09-15T07:29:00.981Z,3.58
2022-09-15T07:31:31.797Z,3.50
2022-09-15T07:34:01.051Z,3.90
2022-09-15T07:36:30.022Z,3.88
2022-09-15T07:38:57.913Z,3.58
2022-09-15T07:41:30.898Z,3.50
2022-09-15T07:43:59.974Z,3.25
2022-09-15T07:46:31.225Z,3.15
2022-09-15T07:48:59.113Z,2.97
2022-09-15T07:51:27.094Z,3.03
2022-09-15T07:53:55.046Z,3.13
2022-09-15T07:56:25.820Z,2.80
2022-09-15T07:58:53.870Z,2.30
2022-09-15T08:01:22.586Z,2.40
2022-09-15T08:03:52.541Z,2.40
2022-09-15T08:06:25.800Z,2.80
2022-09-15T08:08:59.249Z,3.00
2022-09-15T08:11:28.908Z,2.47
2022-09-15T08:13:56.746Z,2.22
2022-09-15T08:16:25.132Z,2.35
2022-09-15T08:18:54.513Z,2.05
2022-09-15T08:21:23.700Z,2.38
2022-09-15T08:23:58.190Z,2.15
2022-09-15T08:26:27.335Z,2.10
2022-09-15T08:28:56.159Z,1.95
2022-09-15T08:31:25.140Z,2.00
2022-09-15T08:33:55.244Z,1.73
2022-09-15T08:36:27.569Z,2.17
2022-09-15T08:38:56.129Z,1.88
2022-09-15T08:41:34.580Z,2.28
2022-09-15T08:44:30.310Z,2.00
2022-09-15T08:47:15.741Z,1.80
2022-09-15T08:49:51.523Z,2.05
2022-09-15T08:52:35.291Z,2.10
2022-09-15T08:55:15.819Z,2.00
2022-09-15T08:57:45.108Z,1.83
2022-09-15T09:00:15.461Z,2.20
2022-09-15T09:02:55.285Z,1.85
2022-09-15T09:05:41.661Z,1.70
2022-09-15T09:08:21.388Z,1.90
2022-09-15T09:10:53.359Z,1.90
2022-09-15T09:13:34.657Z,2.05
2022-09-15T09:16:09.736Z,2.05
2022-09-15T09:19:28.957Z,1.80
2022-09-15T09:22:09.733Z,1.63
2022-09-15T09:24:44.749Z,2.00
2022-09-15T09:27:22.268Z,1.50
2022-09-15T09:29:57.803Z,1.70
2022-09-15T09:32:32.401Z,1.83
2022-09-15T09:35:09.284Z,1.70
2022-09-15T09:37:37.063Z,1.58
2022-09-15T09:40:05.947Z,1.60
2022-09-15T09:42:38.499Z,1.52
2022-09-15T09:45:07.797Z,1.95
2022-09-15T09:47:36.572Z,1.83
2022-09-15T09:50:35.538Z,1.92
2022-09-15T09:53:33.693Z,2.20
2022-09-15T09:56:26.141Z,2.00
2022-09-15T09:58:55.188Z,1.80
2022-09-15T10:01:26.076Z,1.95
2022-09-15T10:04:18.273Z,1.85
2022-09-15T10:06:46.658Z,2.17
2022-09-15T10:09:19.293Z,2.03
2022-09-15T10:11:54.645Z,1.67
2022-09-15T10:14:25.405Z,1.80
2022-09-15T10:17:18.628Z,1.83
2022-09-15T10:19:57.814Z,1.58
2022-09-15T10:22:39.114Z,1.98
2022-09-15T10:25:22.127Z,1.90
2022-09-15T10:28:11.749Z,1.85
2022-09-15T10:30:57.527Z,1.98
2022-09-15T10:33:31.842Z,1.60
2022-09-15T10:36:04.377Z,2.20
2022-09-15T10:38:43.053Z,2.00
2022-09-15T10:41:22.542Z,1.60
2022-09-15T10:44:17.905Z,1.80
2022-09-15T10:47:01.833Z,1.85
2022-09-15T10:49:48.564Z,2.15
2022-09-15T10:52:21.800Z,1.88
2022-09-15T10:55:51.651Z,2.20
2022-09-15T10:58:20.465Z,2.15
2022-09-15T11:01:34.480Z,2.00
2022-09-15T11:04:17.378Z,2.30
2022-09-15T11:06:56.050Z,2.33
2022-09-15T11:09:25.991Z,2.30
2022-09-15T11:12:07.294Z,2.13
2022-09-15T11:14:54.822Z,1.83
2022-09-15T11:17:34.530Z,2.00
2022-09-15T11:20:21.909Z,2.40
2022-09-15T11:23:19.144Z,2.20
2022-09-15T11:25:57.003Z,2.72
2022-09-15T11:28:33.087Z,2.38
2022-09-15T11:31:22.150Z,3.08
2022-09-15T11:34:15.430Z,3.67
2022-09-15T11:36:56.636Z,3.22
2022-09-15T11:39:30.650Z,3.55
2022-09-15T11:42:07.740Z,2.88
2022-09-15T11:44:42.099Z,3.30
2022-09-15T11:47:22.931Z,3.13
2022-09-15T11:49:59.673Z,3.90
2022-09-15T11:52:51.627Z,3.30
2022-09-15T11:55:28.432Z,3.28
2022-09-15T11:58:16.377Z,3.15
2022-09-15T12:00:55.881Z,3.53
2022-09-15T12:03:36.011Z,2.78
2022-09-15T12:06:08.121Z,3.72
2022-09-15T12:08:50.908Z,3.85
2022-09-15T12:11:23.153Z,3.35
2022-09-15T12:13:52.550Z,3.63
2022-09-15T12:16:21.325Z,3.13
2022-09-15T12:19:07.109Z,3.38
2022-09-15T12:21:41.648Z,4.53
2022-09-15T12:24:09.663Z,3.80
2022-09-15T12:26:38.416Z,4.13
2022-09-15T12:29:26.073Z,5.63
2022-09-15T12:32:19.542Z,6.35
2022-09-15T12:34:59.774Z,5.85
2022-09-15T12:37:46.848Z,6.57
2022-09-15T12:40:30.350Z,6.20
2022-09-15T12:42:58.344Z,6.27
2022-09-15T12:45:39.031Z,5.40
2022-09-15T12:48:20.269Z,5.78
2022-09-15T12:50:58.437Z,5.22
2022-09-15T12:56:11.701Z,5.35
2022-09-15T12:58:46.229Z,4.57
2022-09-15T13:01:27.008Z,6.18
2022-09-15T13:04:24.890Z,4.88
2022-09-15T13:07:18.536Z,6.32
2022-09-15T13:10:09.391Z,7.40
2022-09-15T13:12:43.705Z,7.63
2022-09-15T13:15:16.338Z,5.85
2022-09-15T13:17:47.277Z,5.50
2022-09-15T13:20:21.865Z,5.60
2022-09-15T13:22:53.020Z,5.55
2022-09-15T13:25:27.161Z,5.88
2022-09-15T13:28:00.058Z,7.10
2022-09-15T13:30:40.165Z,7.10
2022-09-15T13:40:27.360Z,5.22
2022-09-15T13:43:08.969Z,6.68
2022-09-15T13:45:56.228Z,6.30
2022-09-15T13:48:40.326Z,6.88
2022-09-15T13:51:31.379Z,7.47
2022-09-15T13:54:17.143Z,8.43
2022-09-15T13:56:47.427Z,8.40
2022-09-15T13:59:18.955Z,6.90
2022-09-15T14:01:46.961Z,6.45
2022-09-15T14:04:24.464Z,6.47
2022-09-15T14:06:58.533Z,7.03
2022-09-15T14:09:35.286Z,7.00
2022-09-15T14:12:09.259Z,7.15
2022-09-15T14:14:42.462Z,8.18
2022-09-15T14:17:28.773Z,7.00
2022-09-15T14:19:59.856Z,7.47
2022-09-15T14:22:32.682Z,8.18
2022-09-15T14:25:06.855Z,7.75
2022-09-15T14:27:37.143Z,7.90
2022-09-15T14:30:08.942Z,7.90
2022-09-15T14:32:45.065Z,7.53
